createdAt,value
2018-12-21T00:00:32.199Z,3.67
2018-12-21T00:03:01.089Z,2.90
2018-12-21T00:05:30.904Z,3.20
2018-12-21T00:08:00.441Z,3.60
2018-12-21T00:10:32.386Z,3.07
2018-12-21T00:13:02.402Z,3.40
2018-12-21T00:15:33.435Z,3.53
2018-12-21T00:18:05.251Z,4.03
2018-12-21T00:20:36.540Z,3.57
2018-12-21T00:23:05.988Z,3.33
2018-12-21T00:25:35.288Z,2.80
2018-12-21T00:28:04.297Z,3.33
2018-12-21T00:30:34.612Z,3.23
2018-12-21T00:33:11.861Z,3.20
2018-12-21T00:35:45.947Z,2.93
2018-12-21T00:38:21.092Z,2.53
2018-12-21T00:40:56.176Z,3.60
2018-12-21T00:43:36.492Z,3.60
2018-12-21T00:46:10.322Z,3.20
2018-12-21T00:48:40.792Z,3.10
2018-12-21T00:51:09.975Z,3.10
2018-12-21T00:53:40.420Z,3.97
2018-12-21T00:56:09.956Z,2.73
2018-12-21T00:58:40.227Z,2.90
2018-12-21T01:01:10.138Z,2.60
2018-12-21T01:03:39.358Z,3.43
2018-12-21T01:06:10.529Z,3.30
2018-12-21T01:08:39.356Z,3.20
2018-12-21T01:11:08.448Z,3.33
2018-12-21T01:13:40.480Z,3.37
2018-12-21T01:16:09.191Z,2.80
2018-12-21T01:18:37.962Z,3.13
2018-12-21T01:21:10.837Z,3.00
2018-12-21T01:23:48.619Z,3.50
2018-12-21T01:26:19.320Z,2.60
2018-12-21T01:28:51.728Z,3.67
2018-12-21T01:31:22.647Z,2.90
2018-12-21T01:33:57.850Z,3.00
2018-12-21T01:36:28.218Z,3.23
2018-12-21T01:39:00.068Z,2.80
2018-12-21T01:41:32.061Z,3.20
2018-12-21T01:44:02.551Z,2.60
2018-12-21T01:46:37.642Z,3.37
2018-12-21T01:49:12.627Z,2.83
2018-12-21T01:51:47.062Z,3.23
2018-12-21T01:54:16.621Z,3.83
2018-12-21T01:56:47.013Z,3.50
2018-12-21T01:59:18.043Z,2.73
2018-12-21T02:01:49.168Z,3.03
2018-12-21T02:04:21.898Z,3.43
2018-12-21T02:06:53.072Z,3.20
2018-12-21T02:09:26.715Z,3.07
2018-12-21T02:11:58.771Z,2.90
2018-12-21T02:14:30.235Z,3.50
2018-12-21T02:17:03.226Z,4.00
2018-12-21T02:19:36.642Z,3.23
2018-12-21T02:22:08.584Z,3.70
2018-12-21T02:24:41.843Z,3.20
2018-12-21T02:27:13.010Z,3.50
2018-12-21T02:29:50.714Z,3.70
2018-12-21T02:32:24.621Z,3.50
2018-12-21T02:34:55.523Z,4.00
2018-12-21T02:37:25.198Z,4.80
2018-12-21T02:39:56.982Z,3.90
2018-12-21T02:42:28.095Z,4.33
2018-12-21T02:45:00.387Z,4.47
2018-12-21T02:47:33.109Z,4.23
2018-12-21T02:50:05.859Z,4.63
2018-12-21T02:52:34.973Z,4.80
2018-12-21T02:55:05.129Z,5.47
2018-12-21T02:57:34.807Z,5.60
2018-12-21T03:00:05.333Z,6.00
2018-12-21T03:02:34.113Z,6.40
2018-12-21T03:05:03.688Z,6.60
2018-12-21T03:07:32.392Z,6.23
2018-12-21T03:10:02.569Z,7.17
2018-12-21T03:12:31.827Z,7.43
2018-12-21T03:15:01.408Z,9.57
2018-12-21T03:17:31.290Z,8.67
2018-12-21T03:20:00.266Z,9.00
2018-12-21T03:22:29.046Z,9.27
2018-12-21T03:24:57.729Z,9.10
2018-12-21T03:27:26.736Z,8.57
2018-12-21T03:29:56.373Z,9.70
2018-12-21T03:32:25.273Z,9.60
2018-12-21T03:34:53.957Z,9.33
2018-12-21T03:37:24.468Z,9.30
2018-12-21T03:39:54.120Z,9.80
2018-12-21T03:42:22.733Z,10.60
2018-12-21T03:44:52.634Z,10.27
2018-12-21T03:47:21.264Z,9.07
2018-12-21T03:49:50.456Z,9.40
2018-12-21T03:52:24.114Z,9.30
2018-12-21T03:54:55.547Z,9.77
2018-12-21T03:57:24.153Z,8.50
2018-12-21T03:59:53.500Z,9.63
2018-12-21T04:02:22.152Z,9.77
2018-12-21T04:04:53.295Z,9.60
2018-12-21T04:07:23.409Z,9.60
2018-12-21T04:09:54.266Z,9.03
2018-12-21T04:12:23.832Z,9.07
2018-12-21T04:14:52.280Z,9.67
2018-12-21T04:17:21.678Z,9.70
2018-12-21T04:19:50.930Z,9.60
2018-12-21T04:22:20.379Z,9.00
2018-12-21T04:24:52.904Z,8.33
2018-12-21T04:27:22.196Z,8.13
2018-12-21T04:29:52.972Z,8.60
2018-12-21T04:32:22.362Z,7.67
2018-12-21T04:34:50.797Z,8.00
2018-12-21T04:37:21.353Z,7.30
2018-12-21T04:39:50.085Z,8.10
2018-12-21T04:42:18.570Z,6.90
2018-12-21T04:44:48.260Z,7.40
2018-12-21T04:47:17.801Z,7.50
2018-12-21T04:49:47.162Z,8.03
2018-12-21T04:52:15.724Z,7.27
2018-12-21T04:54:44.272Z,8.50
2018-12-21T04:57:12.890Z,8.73
2018-12-21T04:59:42.096Z,8.17
2018-12-21T05:02:12.621Z,7.90
2018-12-21T05:04:41.497Z,7.40
2018-12-21T05:07:12.666Z,8.10
2018-12-21T05:09:40.388Z,8.20
2018-12-21T05:12:09.905Z,7.70
2018-12-21T05:14:38.630Z,7.00
2018-12-21T05:17:07.149Z,7.83
2018-12-21T05:19:37.758Z,7.70
2018-12-21T05:22:06.174Z,8.60
2018-12-21T05:24:36.803Z,7.90
2018-12-21T05:27:06.810Z,7.63
2018-12-21T05:29:35.981Z,6.83
2018-12-21T05:32:04.900Z,8.20
2018-12-21T05:34:34.537Z,8.73
2018-12-21T05:37:03.827Z,7.90
2018-12-21T05:39:36.430Z,8.43
2018-12-21T05:42:07.909Z,9.90
2018-12-21T05:44:36.310Z,9.23
2018-12-21T05:47:04.689Z,9.20
2018-12-21T05:49:35.254Z,9.47
2018-12-21T05:52:06.117Z,10.13
2018-12-21T05:54:35.680Z,9.80
2018-12-21T05:57:08.168Z,9.73
2018-12-21T05:59:37.780Z,8.80
2018-12-21T06:02:06.249Z,8.87
2018-12-21T06:04:36.236Z,9.07
2018-12-21T06:07:05.909Z,7.70
2018-12-21T06:09:36.364Z,8.37
2018-12-21T06:12:05.618Z,7.73
2018-12-21T06:14:35.920Z,8.37
2018-12-21T06:17:05.350Z,8.10
2018-12-21T06:19:36.868Z,8.07
2018-12-21T06:22:05.922Z,9.27
2018-12-21T06:24:34.439Z,9.20
2018-12-21T06:27:03.035Z,8.73
2018-12-21T06:29:33.055Z,9.80
2018-12-21T06:32:02.156Z,9.87
2018-12-21T06:34:32.105Z,10.03
2018-12-21T06:37:01.155Z,9.60
2018-12-21T06:39:30.199Z,11.23
2018-12-21T06:41:59.323Z,10.63
2018-12-21T06:44:29.027Z,10.70
2018-12-21T06:46:59.295Z,9.70
2018-12-21T06:49:29.007Z,11.80
2018-12-21T06:54:38.351Z,11.03
2018-12-21T06:57:08.336Z,11.10
2018-12-21T06:59:36.529Z,11.47
2018-12-21T07:02:05.085Z,11.47
2018-12-21T07:04:33.285Z,10.73
2018-12-21T07:07:01.464Z,10.37
2018-12-21T07:09:29.782Z,11.17
2018-12-21T07:11:58.002Z,11.67
2018-12-21T07:14:26.311Z,11.50
2018-12-21T07:16:54.669Z,10.30
2018-12-21T07:19:22.973Z,10.63
2018-12-21T07:21:51.197Z,9.70
2018-12-21T07:26:58.485Z,9.87
2018-12-21T07:29:26.756Z,9.87
2018-12-21T07:31:56.028Z,9.70
2018-12-21T07:34:25.984Z,9.17
2018-12-21T07:36:54.537Z,8.30
2018-12-21T07:39:23.040Z,8.60
2018-12-21T07:41:51.250Z,8.60
2018-12-21T07:44:19.427Z,8.70
2018-12-21T07:46:47.772Z,8.63
2018-12-21T07:49:16.020Z,9.47
2018-12-21T07:51:44.323Z,8.87
2018-12-21T07:54:12.705Z,9.47
2018-12-21T07:56:40.940Z,10.93
2018-12-21T07:59:09.196Z,9.03
2018-12-21T08:01:37.578Z,8.43
2018-12-21T08:04:05.843Z,10.10
2018-12-21T08:06:34.081Z,8.83
2018-12-21T08:09:03.341Z,9.50
2018-12-21T08:11:31.587Z,9.53
2018-12-21T08:13:59.850Z,9.43
2018-12-21T08:16:28.275Z,9.20
2018-12-21T08:18:56.483Z,7.23
2018-12-21T08:21:24.801Z,8.17
2018-12-21T08:23:53.112Z,7.10
2018-12-21T08:26:21.281Z,5.90
2018-12-21T08:28:49.525Z,6.47
2018-12-21T08:31:17.901Z,5.80
2018-12-21T08:33:47.049Z,5.23
2018-12-21T08:36:15.802Z,5.17
2018-12-21T08:38:44.149Z,4.93
2018-12-21T08:41:12.363Z,5.33
2018-12-21T08:43:40.592Z,5.70
2018-12-21T08:46:08.883Z,5.50
2018-12-21T08:48:37.095Z,5.90
2018-12-21T08:51:05.906Z,6.40
2018-12-21T08:53:34.177Z,5.97
2018-12-21T08:56:02.412Z,5.90
2018-12-21T08:58:30.712Z,5.80
2018-12-21T09:00:59.048Z,7.03
2018-12-21T09:03:27.401Z,6.90
2018-12-21T09:05:55.710Z,7.63
2018-12-21T09:08:24.044Z,6.80
2018-12-21T09:10:52.286Z,7.10
2018-12-21T09:13:20.663Z,7.67
2018-12-21T09:15:49.125Z,7.97
2018-12-21T09:18:17.321Z,8.90
2018-12-21T09:20:45.497Z,7.63
2018-12-21T09:23:13.848Z,7.60
2018-12-21T09:25:42.180Z,7.63
2018-12-21T09:28:10.396Z,7.87
2018-12-21T09:30:38.633Z,6.83
2018-12-21T09:33:06.946Z,6.80
2018-12-21T09:35:36.005Z,7.20
2018-12-21T09:38:04.373Z,6.50
2018-12-21T09:40:32.732Z,6.37
2018-12-21T09:43:00.920Z,6.23
2018-12-21T09:45:29.318Z,6.33
2018-12-21T09:47:57.527Z,5.97
2018-12-21T09:50:26.008Z,5.27
2018-12-21T09:52:54.227Z,5.07
2018-12-21T09:55:22.405Z,5.13
2018-12-21T09:57:50.825Z,5.30
2018-12-21T10:00:19.044Z,6.53
2018-12-21T10:02:47.653Z,6.20
2018-12-21T10:05:16.962Z,8.07
2018-12-21T10:07:45.159Z,8.40
2018-12-21T10:10:13.527Z,8.80
2018-12-21T10:12:41.901Z,8.00
2018-12-21T10:15:10.505Z,7.70
2018-12-21T10:17:38.785Z,7.97
2018-12-21T10:20:08.830Z,7.30
2018-12-21T10:22:37.134Z,8.40
2018-12-21T10:25:06.288Z,8.77
2018-12-21T10:27:35.309Z,8.53
2018-12-21T10:30:04.597Z,7.83
2018-12-21T10:32:33.051Z,7.33
2018-12-21T10:35:01.284Z,8.20
2018-12-21T10:37:32.055Z,7.77
2018-12-21T10:40:00.622Z,6.53
2018-12-21T10:42:29.152Z,7.13
2018-12-21T10:44:57.363Z,7.50
2018-12-21T10:47:25.817Z,7.50
2018-12-21T10:49:54.144Z,7.43
2018-12-21T10:52:22.472Z,6.60
2018-12-21T10:54:50.786Z,6.30
2018-12-21T10:57:19.046Z,6.77
2018-12-21T10:59:47.262Z,5.80
2018-12-21T11:02:15.650Z,5.93
2018-12-21T11:04:43.981Z,5.97
2018-12-21T11:07:12.584Z,4.07
2018-12-21T11:09:41.213Z,4.00
2018-12-21T11:12:09.636Z,3.90
2018-12-21T11:14:38.127Z,3.80
2018-12-21T11:17:06.334Z,3.87
2018-12-21T11:19:34.857Z,3.07
2018-12-21T11:22:03.198Z,3.40
2018-12-21T11:24:35.376Z,2.83
2018-12-21T11:27:01.761Z,3.20
2018-12-21T11:29:30.135Z,3.40
2018-12-21T11:31:58.392Z,3.40
2018-12-21T11:34:26.719Z,3.13
2018-12-21T11:36:55.238Z,3.30
2018-12-21T11:39:24.130Z,3.73
2018-12-21T11:41:52.525Z,4.00
2018-12-21T11:44:20.970Z,3.97
2018-12-21T11:46:49.338Z,3.90
2018-12-21T11:49:17.661Z,3.53
2018-12-21T11:51:46.213Z,3.30
2018-12-21T11:54:14.545Z,3.60
2018-12-21T11:56:43.135Z,3.63
2018-12-21T11:59:11.808Z,3.10
2018-12-21T12:01:40.148Z,2.70
2018-12-21T12:04:08.434Z,2.93
2018-12-21T12:06:36.926Z,3.20
2018-12-21T12:09:07.453Z,3.47
2018-12-21T12:11:35.853Z,3.73
2018-12-21T12:14:04.293Z,3.13
2018-12-21T12:16:32.518Z,2.80
2018-12-21T12:19:00.809Z,2.40
2018-12-21T12:21:29.187Z,2.80
2018-12-21T12:23:57.489Z,2.30
2018-12-21T12:26:25.714Z,2.80
2018-12-21T12:28:54.123Z,2.33
2018-12-21T12:31:22.421Z,1.63
2018-12-21T12:33:51.120Z,1.87
2018-12-21T12:36:19.988Z,3.50
2018-12-21T12:38:48.449Z,3.13
2018-12-21T12:41:19.396Z,2.47
2018-12-21T12:43:47.745Z,2.47
2018-12-21T12:46:16.067Z,3.10
2018-12-21T12:48:44.526Z,2.60
2018-12-21T12:51:13.222Z,2.47
2018-12-21T12:53:41.840Z,2.17
2018-12-21T12:56:10.823Z,2.13
2018-12-21T12:58:39.241Z,2.10
2018-12-21T13:01:08.162Z,1.90
2018-12-21T13:03:36.893Z,2.27
2018-12-21T13:06:05.260Z,3.37
2018-12-21T13:08:33.753Z,2.20
2018-12-21T13:11:02.224Z,3.03
2018-12-21T13:13:30.800Z,2.63
2018-12-21T13:15:59.554Z,2.20
2018-12-21T13:18:28.144Z,2.90
2018-12-21T13:20:56.943Z,4.17
2018-12-21T13:23:25.748Z,4.10
2018-12-21T13:25:54.635Z,4.43
2018-12-21T13:28:23.107Z,4.37
2018-12-21T13:30:51.592Z,4.90
2018-12-21T13:33:20.029Z,5.10
2018-12-21T13:35:48.506Z,4.60
2018-12-21T13:38:17.132Z,5.00
2018-12-21T13:40:45.645Z,5.67
2018-12-21T13:43:14.750Z,5.57
2018-12-21T13:45:43.275Z,5.00
2018-12-21T13:48:11.719Z,4.83
2018-12-21T13:50:40.343Z,5.30
2018-12-21T13:53:08.902Z,5.80
2018-12-21T13:55:38.099Z,5.60
2018-12-21T13:58:06.597Z,5.80
2018-12-21T14:00:35.011Z,5.60
2018-12-21T14:03:03.393Z,5.60
2018-12-21T14:05:31.764Z,6.70
2018-12-21T14:08:00.288Z,6.47
2018-12-21T14:10:28.989Z,5.33
2018-12-21T14:12:57.471Z,5.57
2018-12-21T14:15:26.036Z,6.43
2018-12-21T14:17:54.460Z,5.60
2018-12-21T14:20:22.931Z,5.70
2018-12-21T14:22:51.287Z,6.07
2018-12-21T14:25:19.526Z,6.23
2018-12-21T14:27:48.230Z,7.70
2018-12-21T14:30:16.692Z,6.10
2018-12-21T14:32:44.954Z,6.50
2018-12-21T14:35:13.436Z,7.17
2018-12-21T14:37:41.793Z,7.37
2018-12-21T14:40:10.060Z,6.20
2018-12-21T14:42:38.579Z,6.97
2018-12-21T14:45:07.445Z,8.07
2018-12-21T14:47:35.718Z,8.17
2018-12-21T14:50:06.782Z,6.90
2018-12-21T14:52:35.153Z,6.83
2018-12-21T14:55:04.451Z,7.33
2018-12-21T14:57:32.780Z,6.50
2018-12-21T15:00:01.137Z,6.80
2018-12-21T15:02:29.533Z,7.50
2018-12-21T15:04:57.901Z,7.53
2018-12-21T15:07:26.443Z,7.70
2018-12-21T15:09:54.743Z,7.17
2018-12-21T15:12:22.956Z,7.80
2018-12-21T15:14:51.322Z,6.70
2018-12-21T15:17:19.556Z,7.17
2018-12-21T15:19:47.858Z,6.30
2018-12-21T15:22:16.253Z,6.77
2018-12-21T15:24:44.530Z,6.97
2018-12-21T15:27:12.840Z,7.83
2018-12-21T15:29:41.417Z,8.53
2018-12-21T15:32:09.947Z,8.33
2018-12-21T15:34:38.298Z,7.23
2018-12-21T15:37:06.778Z,8.93
2018-12-21T15:39:35.369Z,7.20
2018-12-21T15:42:03.858Z,7.57
2018-12-21T15:44:32.331Z,8.53
2018-12-21T15:47:08.796Z,7.80
2018-12-21T15:49:31.145Z,8.80
2018-12-21T15:51:59.633Z,8.47
2018-12-21T15:54:28.101Z,9.33
2018-12-21T15:56:56.771Z,8.83
2018-12-21T15:59:25.183Z,8.10
2018-12-21T16:01:53.895Z,8.03
2018-12-21T16:04:22.426Z,9.40
2018-12-21T16:06:50.835Z,9.20
2018-12-21T16:09:19.169Z,9.77
2018-12-21T16:11:47.493Z,10.90
2018-12-21T16:14:15.974Z,9.50
2018-12-21T16:16:44.400Z,11.03
2018-12-21T16:19:12.852Z,10.87
2018-12-21T16:21:41.218Z,8.37
2018-12-21T16:24:09.592Z,8.93
2018-12-21T16:26:37.983Z,9.90
2018-12-21T16:29:06.365Z,8.67
2018-12-21T16:31:35.167Z,9.50
2018-12-21T16:34:04.171Z,8.63
2018-12-21T16:36:32.743Z,10.20
2018-12-21T16:41:39.858Z,8.63
2018-12-21T16:44:08.361Z,10.00
2018-12-21T16:46:36.726Z,9.87
2018-12-21T16:51:50.394Z,8.77
2018-12-21T16:54:18.991Z,10.07
2018-12-21T16:56:47.309Z,9.00
2018-12-21T16:59:15.641Z,8.97
2018-12-21T17:01:44.118Z,9.03
2018-12-21T17:04:12.470Z,10.00
2018-12-21T17:06:40.974Z,7.87
2018-12-21T17:09:09.583Z,8.97
2018-12-21T17:11:38.141Z,9.00
2018-12-21T17:14:06.926Z,9.40
2018-12-21T17:16:35.182Z,9.10
2018-12-21T17:19:13.608Z,8.03
2018-12-21T17:21:41.913Z,9.20
2018-12-21T17:24:10.342Z,10.07
2018-12-21T17:26:38.854Z,10.53
2018-12-21T17:29:07.250Z,8.30
2018-12-21T17:31:35.601Z,8.50
2018-12-21T17:34:04.054Z,9.83
2018-12-21T17:36:32.582Z,9.30
2018-12-21T17:39:01.046Z,9.80
2018-12-21T17:41:29.430Z,8.40
2018-12-21T17:43:57.849Z,9.63
2018-12-21T17:46:26.199Z,8.87
2018-12-21T17:48:54.574Z,10.60
2018-12-21T17:51:23.586Z,10.17
2018-12-21T17:53:52.079Z,11.63
2018-12-21T17:56:20.425Z,9.53
2018-12-21T17:58:48.916Z,8.93
2018-12-21T18:01:18.138Z,9.10
2018-12-21T18:04:21.202Z,11.00
2018-12-21T18:06:49.484Z,9.33
2018-12-21T18:09:17.938Z,9.37
2018-12-21T18:11:46.321Z,9.87
2018-12-21T18:14:14.768Z,10.50
2018-12-21T18:16:43.146Z,9.30
2018-12-21T18:19:11.526Z,9.60
2018-12-21T18:21:49.358Z,9.83
2018-12-21T18:24:17.820Z,7.87
2018-12-21T18:26:46.115Z,9.37
2018-12-21T18:29:14.721Z,11.50
2018-12-21T18:32:52.634Z,10.07
2018-12-21T18:35:21.448Z,8.83
2018-12-21T18:38:01.018Z,10.43
2018-12-21T18:40:30.702Z,10.40
2018-12-21T18:43:00.656Z,9.47
2018-12-21T18:45:30.628Z,10.00
2018-12-21T18:47:59.102Z,9.10
2018-12-21T18:50:29.437Z,10.77
2018-12-21T18:52:57.988Z,7.93
2018-12-21T18:55:27.175Z,8.63
2018-12-21T18:57:55.769Z,10.80
2018-12-21T19:00:25.203Z,10.57
2018-12-21T19:02:54.092Z,10.27
2018-12-21T19:05:23.123Z,9.63
2018-12-21T19:07:54.027Z,10.10
2018-12-21T19:10:23.347Z,9.67
2018-12-21T19:12:51.761Z,11.13
2018-12-21T19:15:22.571Z,9.43
2018-12-21T19:17:51.303Z,10.33
2018-12-21T19:20:19.983Z,10.97
2018-12-21T19:22:49.090Z,9.03
2018-12-21T19:25:19.335Z,11.00
2018-12-21T19:27:48.599Z,9.23
2018-12-21T19:30:17.015Z,9.43
2018-12-21T19:32:46.566Z,12.23
2018-12-21T19:35:15.636Z,10.90
2018-12-21T19:37:44.053Z,8.33
2018-12-21T19:40:13.850Z,8.60
2018-12-21T19:42:44.955Z,9.63
2018-12-21T19:45:14.525Z,10.63
2018-12-21T19:47:43.011Z,10.27
2018-12-21T19:50:13.702Z,8.70
2018-12-21T19:52:42.301Z,9.83
2018-12-21T19:57:22.972Z,9.80
2018-12-21T19:59:51.669Z,9.63
2018-12-21T20:02:20.915Z,10.50
2018-12-21T20:04:49.714Z,10.00
2018-12-21T20:07:18.863Z,10.30
2018-12-21T20:09:48.214Z,8.50
2018-12-21T20:12:16.662Z,9.67
2018-12-21T20:14:45.223Z,8.70
2018-12-21T20:17:13.774Z,10.37
2018-12-21T20:19:42.327Z,11.37
2018-12-21T20:22:10.851Z,8.93
2018-12-21T20:24:40.731Z,9.53
2018-12-21T20:27:14.380Z,10.33
2018-12-21T20:30:02.457Z,9.90
2018-12-21T20:32:30.966Z,10.20
2018-12-21T20:34:59.510Z,9.70
2018-12-21T20:37:28.161Z,9.30
2018-12-21T20:39:56.762Z,8.53
2018-12-21T20:42:25.223Z,9.27
2018-12-21T20:44:54.109Z,8.77
2018-12-21T20:47:22.722Z,9.27
2018-12-21T20:49:51.150Z,9.10
2018-12-21T20:52:19.735Z,9.43
2018-12-21T20:54:48.739Z,9.60
2018-12-21T20:57:22.052Z,11.00
2018-12-21T20:59:49.839Z,9.93
2018-12-21T21:02:18.343Z,9.37
2018-12-21T21:04:48.333Z,9.50
2018-12-21T21:07:16.984Z,9.90
2018-12-21T21:09:45.387Z,9.57
2018-12-21T21:12:13.787Z,8.63
2018-12-21T21:14:42.399Z,12.10
2018-12-21T21:17:10.731Z,9.90
2018-12-21T21:19:39.766Z,9.93
2018-12-21T21:22:08.441Z,9.90
2018-12-21T21:24:37.306Z,8.80
2018-12-21T21:27:06.478Z,8.83
2018-12-21T21:29:36.174Z,10.27
2018-12-21T21:32:04.588Z,8.43
2018-12-21T21:34:47.592Z,8.17
2018-12-21T21:37:16.054Z,7.80
2018-12-21T21:39:44.431Z,9.83
2018-12-21T21:42:13.010Z,7.90
2018-12-21T21:44:41.523Z,9.33
2018-12-21T21:47:10.052Z,8.53
2018-12-21T21:49:38.502Z,9.00
2018-12-21T21:52:07.579Z,7.97
2018-12-21T21:54:36.364Z,8.80
2018-12-21T21:57:04.859Z,7.73
2018-12-21T21:59:33.270Z,8.13
2018-12-21T22:02:01.683Z,7.50
2018-12-21T22:04:30.102Z,8.10
2018-12-21T22:07:02.769Z,8.40
2018-12-21T22:09:32.332Z,9.43
2018-12-21T22:12:00.947Z,8.67
2018-12-21T22:14:29.572Z,11.00
2018-12-21T22:16:58.682Z,8.47
2018-12-21T22:19:27.102Z,8.90
2018-12-21T22:21:55.802Z,8.50
2018-12-21T22:24:24.428Z,9.10
2018-12-21T22:26:52.957Z,7.53
2018-12-21T22:29:21.521Z,8.60
2018-12-21T22:31:57.487Z,8.67
2018-12-21T22:34:26.510Z,7.57
2018-12-21T22:36:58.188Z,9.83
2018-12-21T22:39:26.890Z,8.90
2018-12-21T22:41:55.358Z,8.00
2018-12-21T22:44:23.958Z,9.93
2018-12-21T22:46:52.498Z,7.67
2018-12-21T22:49:21.018Z,8.40
2018-12-21T22:51:49.604Z,8.57
2018-12-21T22:54:18.167Z,7.10
2018-12-21T22:56:46.594Z,8.23
2018-12-21T22:59:15.101Z,7.53
2018-12-21T23:01:43.741Z,11.27
2018-12-21T23:04:12.144Z,8.07
2018-12-21T23:06:40.633Z,8.83
2018-12-21T23:09:09.259Z,8.70
2018-12-21T23:11:37.583Z,7.90
2018-12-21T23:14:06.094Z,8.30
2018-12-21T23:16:34.999Z,10.60
2018-12-21T23:19:03.381Z,8.60
2018-12-21T23:21:31.868Z,7.57
2018-12-21T23:24:00.374Z,7.13
2018-12-21T23:26:28.788Z,7.40
2018-12-21T23:28:57.128Z,9.73
2018-12-21T23:31:25.646Z,9.53
2018-12-21T23:33:57.571Z,8.00
2018-12-21T23:36:30.855Z,8.03
2018-12-21T23:38:59.280Z,6.97
2018-12-21T23:41:28.610Z,8.10
2018-12-21T23:43:57.299Z,6.60
2018-12-21T23:46:26.458Z,8.10
2018-12-21T23:48:54.922Z,9.50
2018-12-21T23:51:23.725Z,8.87
2018-12-21T23:53:52.079Z,9.60
2018-12-21T23:56:20.560Z,6.83
2018-12-21T23:58:49.068Z,8.17
